Time;durP1;ratioP1;P1;durP2;ratioP2;P2;SDS_P1;SDS_P2;PMS_P1;PMS_P2;Temp;Humidity;BMP_temperature;BMP_pressure;BME280_temperature;BME280_humidity;BME280_pressure;Samples;Min_cycle;Max_cycle;Signal;HPM_P1;HPM_P2
2023/03/17 00:02:07;;;;;;;;;;;16.90;37.90;;;;;;5009328;28;20004;-76
2023/03/17 00:04:32;;;;;;;;;;;16.90;37.90;;;;;;5003989;28;19997;-77
2023/03/17 00:06:58;;;;;;;;;;;16.90;38.00;;;;;;4995219;28;19909;-77
2023/03/17 00:09:24;;;;;;;;;;;16.80;37.90;;;;;;5011571;28;19957;-77
2023/03/17 00:11:49;;;;;;;;;;;16.80;38.20;;;;;;5017674;28;19918;-77
2023/03/17 00:14:15;;;;;;;;;;;16.80;38.30;;;;;;5031364;28;19917;-76
2023/03/17 00:16:42;;;;;;;;;;;16.80;38.00;;;;;;5015094;28;19935;-76
2023/03/17 00:19:15;;;;;;;;;;;16.80;38.00;;;;;;5031590;28;19944;-77
2023/03/17 00:21:40;;;;;;;;;;;16.80;38.20;;;;;;5015610;28;19909;-77
2023/03/17 00:24:08;;;;;;;;;;;16.80;38.20;;;;;;5024638;28;19953;-77
2023/03/17 00:26:34;;;;;;;;;;;16.80;38.10;;;;;;5013018;28;19913;-77
2023/03/17 00:28:59;;;;;;;;;;;16.80;38.10;;;;;;5003661;28;20000;-77
2023/03/17 00:31:25;;;;;;;;;;;16.80;38.10;;;;;;5032446;28;19965;-77
2023/03/17 00:33:51;;;;;;;;;;;16.80;38.30;;;;;;5015657;28;19913;-77
2023/03/17 00:36:21;;;;;;;;;;;16.80;38.20;;;;;;5015098;28;19909;-76
2023/03/17 00:38:46;;;;;;;;;;;16.70;38.20;;;;;;5017641;28;19918;-77
2023/03/17 00:41:12;;;;;;;;;;;16.80;38.30;;;;;;5012480;28;20000;-76
2023/03/17 00:43:38;;;;;;;;;;;16.70;38.30;;;;;;4995501;28;20363;-77
2023/03/17 00:46:23;;;;;;;;;;;16.70;38.30;;;;;;5012745;28;19909;-77
2023/03/17 00:48:49;;;;;;;;;;;16.70;38.30;;;;;;4996022;28;20363;-77
2023/03/17 00:51:15;;;;;;;;;;;16.70;38.40;;;;;;5011808;28;19975;-77
2023/03/17 00:53:41;;;;;;;;;;;16.70;38.60;;;;;;5008007;28;19917;-76
2023/03/17 00:56:13;;;;;;;;;;;16.70;38.50;;;;;;5028434;28;20016;-77
2023/03/17 00:58:39;;;;;;;;;;;16.70;38.50;;;;;;5011584;28;19917;-77
2023/03/17 01:01:04;;;;;;;;;;;16.70;38.50;;;;;;5029397;28;19909;-77
2023/03/17 01:03:31;;;;;;;;;;;16.60;38.60;;;;;;5022873;28;19916;-77
2023/03/17 01:05:57;;;;;;;;;;;16.60;38.50;;;;;;5030149;28;19909;-77
2023/03/17 01:08:22;;;;;;;;;;;16.60;38.60;;;;;;5022030;28;19914;-77
2023/03/17 01:10:48;;;;;;;;;;;16.70;38.70;;;;;;4998293;28;19921;-77
2023/03/17 01:13:14;;;;;;;;;;;16.60;38.60;;;;;;4999375;28;19917;-77
2023/03/17 01:15:41;;;;;;;;;;;16.60;38.70;;;;;;4998907;28;20004;-76
2023/03/17 01:18:08;;;;;;;;;;;16.60;38.70;;;;;;5021317;28;19913;-77
2023/03/17 01:20:34;;;;;;;;;;;16.60;38.80;;;;;;5021900;28;19945;-77
2023/03/17 01:23:01;;;;;;;;;;;16.60;38.90;;;;;;5015498;28;19964;-77
2023/03/17 01:25:27;;;;;;;;;;;16.60;38.90;;;;;;4999115;28;19928;-77
2023/03/17 01:27:53;;;;;;;;;;;16.50;38.70;;;;;;5016272;28;19916;-77
2023/03/17 01:30:19;;;;;;;;;;;16.50;38.80;;;;;;5015911;28;19909;-78
2023/03/17 01:32:45;;;;;;;;;;;16.50;38.80;;;;;;5040086;28;20007;-77
2023/03/17 01:35:10;;;;;;;;;;;16.50;38.70;;;;;;5025274;28;19917;-77
2023/03/17 01:37:36;;;;;;;;;;;16.50;38.70;;;;;;5000605;28;19921;-77
2023/03/17 01:40:02;;;;;;;;;;;16.50;38.70;;;;;;5015809;28;19959;-77
2023/03/17 01:42:27;;;;;;;;;;;16.50;39.50;;;;;;5014609;28;19957;-77
2023/03/17 01:45:04;;;;;;;;;;;16.50;38.90;;;;;;4997721;28;19909;-77
2023/03/17 01:47:30;;;;;;;;;;;16.50;38.80;;;;;;5020712;28;19913;-77
2023/03/17 01:50:05;;;;;;;;;;;16.40;39.00;;;;;;5014230;28;19963;-77
2023/03/17 01:52:31;;;;;;;;;;;16.40;39.00;;;;;;4998537;28;19910;-76
2023/03/17 01:54:57;;;;;;;;;;;16.40;39.00;;;;;;5029854;28;19924;-76
2023/03/17 01:57:28;;;;;;;;;;;16.40;38.90;;;;;;5033921;28;19948;-77
2023/03/17 01:59:55;;;;;;;;;;;16.40;39.00;;;;;;5018245;28;20268;-77
2023/03/17 02:02:22;;;;;;;;;;;16.40;39.00;;;;;;5079083;27;20377;-76
2023/03/17 02:04:49;;;;;;;;;;;16.40;39.00;;;;;;5104170;27;19921;-77
2023/03/17 02:07:14;;;;;;;;;;;16.40;39.00;;;;;;5015476;28;20324;-77
2023/03/17 02:09:40;;;;;;;;;;;16.40;39.10;;;;;;5021612;28;19922;-77
2023/03/17 02:12:05;;;;;;;;;;;16.40;39.00;;;;;;5031205;28;19913;-77
2023/03/17 02:14:31;;;;;;;;;;;16.30;39.00;;;;;;5016612;28;19921;-77
2023/03/17 02:16:56;;;;;;;;;;;16.40;39.00;;;;;;5032830;28;19937;-78
2023/03/17 02:19:22;;;;;;;;;;;16.60;38.80;;;;;;5016643;28;20008;-77
2023/03/17 02:21:48;;;;;;;;;;;16.80;38.70;;;;;;5035117;28;20386;-77
2023/03/17 02:24:25;;;;;;;;;;;17.10;38.30;;;;;;5031564;28;19917;-77
2023/03/17 02:26:50;;;;;;;;;;;17.40;37.80;;;;;;5017190;28;19913;-77
2023/03/17 02:29:17;;;;;;;;;;;17.70;37.30;;;;;;5030993;28;19909;-77
2023/03/17 02:31:43;;;;;;;;;;;18.00;36.90;;;;;;5018874;28;19909;-77
2023/03/17 02:34:09;;;;;;;;;;;18.20;36.40;;;;;;5051628;28;19916;-77
2023/03/17 02:36:35;;;;;;;;;;;18.40;36.30;;;;;;5022299;28;19997;-77
2023/03/17 02:39:01;;;;;;;;;;;18.40;36.40;;;;;;5014314;28;19919;-77
2023/03/17 02:41:27;;;;;;;;;;;18.40;36.30;;;;;;5014629;28;19909;-77
2023/03/17 02:43:53;;;;;;;;;;;18.30;36.40;;;;;;5013060;28;19964;-77
2023/03/17 02:46:19;;;;;;;;;;;18.30;36.40;;;;;;5031024;28;20381;-77
2023/03/17 02:48:45;;;;;;;;;;;18.20;36.40;;;;;;5029808;27;20007;-77
2023/03/17 02:51:10;;;;;;;;;;;18.20;36.60;;;;;;5015978;28;20381;-77
2023/03/17 02:53:36;;;;;;;;;;;18.00;36.40;;;;;;5057412;27;19919;-76
2023/03/17 02:56:02;;;;;;;;;;;18.00;36.60;;;;;;5039018;27;19913;-77
2023/03/17 02:58:27;;;;;;;;;;;17.90;36.40;;;;;;5004664;28;19918;-77
2023/03/17 03:00:53;;;;;;;;;;;17.80;36.80;;;;;;4996332;28;19913;-77
2023/03/17 03:03:18;;;;;;;;;;;17.70;36.80;;;;;;5033417;27;19920;-77
2023/03/17 03:05:44;;;;;;;;;;;17.70;36.90;;;;;;5017786;28;20008;-77
2023/03/17 03:08:09;;;;;;;;;;;17.60;36.80;;;;;;5011726;28;19909;-77
2023/03/17 03:10:35;;;;;;;;;;;17.60;36.90;;;;;;5010898;28;20296;-77
2023/03/17 03:13:01;;;;;;;;;;;17.50;37.10;;;;;;5023358;28;19917;-77
2023/03/17 03:15:26;;;;;;;;;;;17.40;37.30;;;;;;5032683;28;19984;-77
2023/03/17 03:17:51;;;;;;;;;;;17.40;37.30;;;;;;5031713;28;19985;-77
2023/03/17 03:20:18;;;;;;;;;;;17.30;37.60;;;;;;4996462;28;19956;-76
2023/03/17 03:22:43;;;;;;;;;;;17.20;37.90;;;;;;5012707;28;19914;-77
2023/03/17 03:25:08;;;;;;;;;;;17.20;38.10;;;;;;5011542;28;19972;-77
2023/03/17 03:27:34;;;;;;;;;;;17.10;38.00;;;;;;5011348;28;19918;-77
2023/03/17 03:30:00;;;;;;;;;;;17.00;37.90;;;;;;5011774;28;19916;-76
2023/03/17 03:32:26;;;;;;;;;;;17.00;38.10;;;;;;5022070;28;19913;-77
2023/03/17 03:34:52;;;;;;;;;;;17.00;38.00;;;;;;5031695;28;20366;-76
2023/03/17 03:37:17;;;;;;;;;;;17.00;37.80;;;;;;5012689;28;19909;-77
2023/03/17 03:39:43;;;;;;;;;;;16.90;37.80;;;;;;5011318;28;19914;-77
2023/03/17 03:42:09;;;;;;;;;;;16.90;37.90;;;;;;5004827;28;19923;-77
2023/03/17 03:44:34;;;;;;;;;;;16.90;38.00;;;;;;5008748;28;19914;-77
2023/03/17 03:47:00;;;;;;;;;;;17.00;38.30;;;;;;4995283;28;20367;-76
2023/03/17 03:49:26;;;;;;;;;;;17.00;38.50;;;;;;4995744;28;19913;-77
2023/03/17 03:51:51;;;;;;;;;;;17.10;38.30;;;;;;4997782;28;19913;-77
2023/03/17 03:54:16;;;;;;;;;;;17.10;38.30;;;;;;5009162;28;20000;-77
2023/03/17 03:56:42;;;;;;;;;;;17.10;38.30;;;;;;5095276;28;19914;-77
2023/03/17 03:59:08;;;;;;;;;;;17.20;38.30;;;;;;5095522;28;19910;-77
2023/03/17 04:01:34;;;;;;;;;;;17.20;38.20;;;;;;5097259;28;19917;-77
2023/03/17 04:04:00;;;;;;;;;;;17.20;38.30;;;;;;5029448;28;19909;-77
2023/03/17 04:06:25;;;;;;;;;;;17.20;38.30;;;;;;5009404;28;19933;-78
2023/03/17 04:08:51;;;;;;;;;;;17.20;37.60;;;;;;5027215;28;19917;-77
2023/03/17 04:11:16;;;;;;;;;;;17.20;37.50;;;;;;5026348;28;20015;-77
2023/03/17 04:13:42;;;;;;;;;;;17.20;37.50;;;;;;5028580;28;20008;-78
2023/03/17 04:16:07;;;;;;;;;;;17.20;37.50;;;;;;5012547;28;19909;-78
2023/03/17 04:18:33;;;;;;;;;;;17.30;37.60;;;;;;4997442;28;19924;-77
2023/03/17 04:20:58;;;;;;;;;;;17.30;37.40;;;;;;5010239;28;19910;-78
2023/03/17 04:23:24;;;;;;;;;;;17.30;37.50;;;;;;4993082;28;20279;-77
2023/03/17 04:25:50;;;;;;;;;;;17.30;37.50;;;;;;4992839;28;19910;-77
2023/03/17 04:28:16;;;;;;;;;;;17.30;37.70;;;;;;5008472;28;19914;-77
2023/03/17 04:30:42;;;;;;;;;;;17.20;37.70;;;;;;4994183;28;19924;-77
2023/03/17 04:33:07;;;;;;;;;;;17.20;37.70;;;;;;5050002;28;19918;-77
2023/03/17 04:35:33;;;;;;;;;;;17.20;37.80;;;;;;5098790;28;19935;-77
2023/03/17 04:37:58;;;;;;;;;;;17.10;37.80;;;;;;5102593;28;19917;-77
2023/03/17 04:40:23;;;;;;;;;;;17.10;37.50;;;;;;5088066;28;19925;-77
2023/03/17 04:42:49;;;;;;;;;;;17.20;37.50;;;;;;5032286;28;20333;-78
2023/03/17 04:45:15;;;;;;;;;;;17.20;37.50;;;;;;5028504;28;20003;-77
2023/03/17 04:47:41;;;;;;;;;;;17.20;37.50;;;;;;5032723;28;19914;-78
2023/03/17 04:50:07;;;;;;;;;;;17.10;37.80;;;;;;5032421;28;19996;-77
2023/03/17 04:52:33;;;;;;;;;;;17.20;37.50;;;;;;5032006;28;19916;-77
2023/03/17 04:54:59;;;;;;;;;;;17.20;37.90;;;;;;5029471;28;20528;-77
2023/03/17 04:57:24;;;;;;;;;;;17.20;37.70;;;;;;5031583;28;19914;-77
2023/03/17 04:59:50;;;;;;;;;;;17.20;37.90;;;;;;5031901;28;19965;-77
2023/03/17 05:02:17;;;;;;;;;;;17.20;37.90;;;;;;5019636;28;19982;-77
2023/03/17 05:04:43;;;;;;;;;;;17.20;37.90;;;;;;5013941;28;19914;-77
2023/03/17 05:07:09;;;;;;;;;;;17.20;37.50;;;;;;5016387;28;19914;-77
2023/03/17 05:09:35;;;;;;;;;;;17.20;37.50;;;;;;5015217;28;19928;-77
2023/03/17 05:12:01;;;;;;;;;;;17.10;37.70;;;;;;5015281;28;19910;-78
2023/03/17 05:14:26;;;;;;;;;;;17.10;37.60;;;;;;5006546;28;20297;-77
2023/03/17 05:16:52;;;;;;;;;;;17.10;38.00;;;;;;5015784;28;19917;-77
2023/03/17 05:19:17;;;;;;;;;;;17.00;37.90;;;;;;5034063;28;20285;-77
2023/03/17 05:21:43;;;;;;;;;;;16.90;37.70;;;;;;5034981;28;19958;-77
2023/03/17 05:24:09;;;;;;;;;;;16.90;37.80;;;;;;5020341;27;19920;-77
2023/03/17 05:26:34;;;;;;;;;;;16.90;37.80;;;;;;5015090;28;19962;-77
2023/03/17 05:29:00;;;;;;;;;;;16.90;37.80;;;;;;4998359;28;19910;-77
2023/03/17 05:31:25;;;;;;;;;;;16.90;37.80;;;;;;5016225;28;19914;-77
2023/03/17 05:33:51;;;;;;;;;;;16.90;38.00;;;;;;5018148;28;19948;-77
2023/03/17 05:36:16;;;;;;;;;;;16.80;38.00;;;;;;5032047;28;19974;-77
2023/03/17 05:38:42;;;;;;;;;;;16.80;38.10;;;;;;5019891;28;20366;-77
2023/03/17 05:41:09;;;;;;;;;;;16.80;37.90;;;;;;5018106;28;20316;-77
2023/03/17 05:43:35;;;;;;;;;;;16.80;38.10;;;;;;5034872;28;19957;-78
2023/03/17 05:46:04;;;;;;;;;;;16.80;38.10;;;;;;5031362;28;19913;-77
2023/03/17 05:48:30;;;;;;;;;;;16.80;38.20;;;;;;4995456;28;19917;-77
2023/03/17 05:50:55;;;;;;;;;;;16.90;38.40;;;;;;4999556;28;19940;-77
2023/03/17 05:53:21;;;;;;;;;;;16.90;38.30;;;;;;5009911;28;19917;-77
2023/03/17 05:55:46;;;;;;;;;;;17.00;38.30;;;;;;5020892;28;19914;-77
2023/03/17 05:58:14;;;;;;;;;;;17.00;38.30;;;;;;5013810;28;20306;-77
2023/03/17 06:00:40;;;;;;;;;;;17.00;38.10;;;;;;5008781;28;19914;-77
2023/03/17 06:03:06;;;;;;;;;;;17.00;38.10;;;;;;5004037;28;19914;-77
2023/03/17 06:05:32;;;;;;;;;;;16.90;38.30;;;;;;5022665;28;19909;-78
2023/03/17 06:07:57;;;;;;;;;;;16.90;38.00;;;;;;5025918;28;20263;-78
2023/03/17 06:10:23;;;;;;;;;;;16.80;37.80;;;;;;5044434;28;19921;-78
2023/03/17 06:12:48;;;;;;;;;;;16.80;37.90;;;;;;5045934;27;19913;-77
2023/03/17 06:15:15;;;;;;;;;;;16.80;38.00;;;;;;5042777;28;19909;-78
2023/03/17 06:17:41;;;;;;;;;;;16.80;38.20;;;;;;5019492;28;19913;-77
2023/03/17 06:20:07;;;;;;;;;;;16.70;38.20;;;;;;5029438;28;19948;-77
2023/03/17 06:22:32;;;;;;;;;;;16.70;38.20;;;;;;5025915;28;19910;-78
2023/03/17 06:24:58;;;;;;;;;;;16.70;38.20;;;;;;5016372;28;20290;-77
2023/03/17 06:27:23;;;;;;;;;;;16.60;38.20;;;;;;5003087;28;19957;-76
2023/03/17 06:29:49;;;;;;;;;;;16.60;38.40;;;;;;5012448;28;20000;-76
2023/03/17 06:32:14;;;;;;;;;;;16.50;38.60;;;;;;5010992;28;19929;-76
2023/03/17 06:34:41;;;;;;;;;;;16.50;38.60;;;;;;5010552;28;20384;-76
2023/03/17 06:37:07;;;;;;;;;;;16.50;38.70;;;;;;5010334;28;19965;-76
2023/03/17 06:39:32;;;;;;;;;;;16.50;38.70;;;;;;4999297;28;20098;-77
2023/03/17 06:41:58;;;;;;;;;;;16.50;38.70;;;;;;5030380;28;19917;-77
2023/03/17 06:44:23;;;;;;;;;;;16.40;38.90;;;;;;5021069;28;19917;-76
2023/03/17 06:46:49;;;;;;;;;;;16.50;39.00;;;;;;5031267;27;19988;-77
2023/03/17 06:49:15;;;;;;;;;;;16.50;39.00;;;;;;5014346;28;20296;-77
2023/03/17 06:51:41;;;;;;;;;;;16.30;39.10;;;;;;5006374;28;19918;-77
2023/03/17 06:54:07;;;;;;;;;;;16.40;39.10;;;;;;5006182;28;19922;-76
2023/03/17 06:56:32;;;;;;;;;;;16.40;39.10;;;;;;5018853;28;19917;-76
2023/03/17 06:58:58;;;;;;;;;;;16.50;38.50;;;;;;5029332;28;19909;-79
2023/03/17 07:01:27;;;;;;;;;;;16.50;38.20;;;;;;5009771;28;20624;-80
2023/03/17 07:03:53;;;;;;;;;;;16.50;38.30;;;;;;5007040;28;19964;-80
2023/03/17 07:06:18;;;;;;;;;;;16.50;38.30;;;;;;5010426;28;19917;-80
2023/03/17 07:08:45;;;;;;;;;;;16.50;38.20;;;;;;5019749;28;20282;-77
2023/03/17 07:11:10;;;;;;;;;;;16.50;38.30;;;;;;5035325;28;19928;-75
2023/03/17 07:13:37;;;;;;;;;;;16.50;38.30;;;;;;5016899;28;19921;-77
2023/03/17 07:16:03;;;;;;;;;;;16.50;38.30;;;;;;5003020;28;19914;-77
2023/03/17 07:18:32;;;;;;;;;;;16.50;38.20;;;;;;5025047;28;19924;-76
2023/03/17 07:20:58;;;;;;;;;;;16.50;38.40;;;;;;5020546;28;19920;-75
2023/03/17 07:23:24;;;;;;;;;;;16.60;38.30;;;;;;5019044;28;19917;-76
2023/03/17 07:25:50;;;;;;;;;;;16.60;38.30;;;;;;5004948;28;19910;-76
2023/03/17 07:28:16;;;;;;;;;;;16.60;38.30;;;;;;5008468;28;19913;-77
2023/03/17 07:30:45;;;;;;;;;;;16.60;38.30;;;;;;5029294;28;20372;-75
2023/03/17 07:33:15;;;;;;;;;;;16.60;38.30;;;;;;5012492;28;19920;-75
2023/03/17 07:35:41;;;;;;;;;;;16.60;38.30;;;;;;5017695;28;20001;-76
2023/03/17 07:38:06;;;;;;;;;;;16.60;38.10;;;;;;5014971;28;19944;-76
2023/03/17 07:40:33;;;;;;;;;;;16.60;38.30;;;;;;5026450;28;19921;-76
2023/03/17 07:42:58;;;;;;;;;;;16.60;38.20;;;;;;5033702;28;19909;-76
2023/03/17 07:45:23;;;;;;;;;;;16.60;38.10;;;;;;5022453;28;20324;-76
2023/03/17 07:47:49;;;;;;;;;;;16.60;38.20;;;;;;5009755;28;19916;-76
2023/03/17 07:50:15;;;;;;;;;;;16.70;38.20;;;;;;5003120;28;19933;-76
2023/03/17 07:52:41;;;;;;;;;;;16.70;38.20;;;;;;5026930;28;19916;-76
2023/03/17 07:55:09;;;;;;;;;;;16.60;38.20;;;;;;5009567;28;19920;-76
2023/03/17 07:57:35;;;;;;;;;;;16.60;38.10;;;;;;4998730;28;19913;-76
2023/03/17 08:00:00;;;;;;;;;;;16.60;38.10;;;;;;5013297;28;20321;-76
2023/03/17 08:02:26;;;;;;;;;;;16.60;38.20;;;;;;5028123;28;19939;-76
2023/03/17 08:04:52;;;;;;;;;;;16.60;38.30;;;;;;5022699;28;19913;-76
2023/03/17 08:07:18;;;;;;;;;;;16.60;38.20;;;;;;4999169;28;19913;-76
2023/03/17 08:09:43;;;;;;;;;;;16.60;38.20;;;;;;5027343;28;19929;-76
2023/03/17 08:12:09;;;;;;;;;;;16.60;38.30;;;;;;5022926;28;20042;-76
2023/03/17 08:14:34;;;;;;;;;;;16.60;38.20;;;;;;5016364;28;19923;-76
2023/03/17 08:17:00;;;;;;;;;;;16.60;38.20;;;;;;5026040;28;19917;-76
2023/03/17 08:19:25;;;;;;;;;;;16.60;38.30;;;;;;5017049;28;20374;-76
2023/03/17 08:21:51;;;;;;;;;;;16.60;38.30;;;;;;5008994;28;19916;-77
2023/03/17 08:24:17;;;;;;;;;;;16.60;38.10;;;;;;5022161;28;19914;-76
2023/03/17 08:26:42;;;;;;;;;;;16.60;38.20;;;;;;5007840;28;19922;-76
2023/03/17 08:29:08;;;;;;;;;;;16.60;38.30;;;;;;5008934;28;19918;-76
2023/03/17 08:31:34;;;;;;;;;;;16.60;38.30;;;;;;5004594;28;19965;-76
2023/03/17 08:34:01;;;;;;;;;;;16.60;38.10;;;;;;5024486;28;19916;-76
2023/03/17 08:36:27;;;;;;;;;;;16.60;38.10;;;;;;5017775;28;19922;-76
2023/03/17 08:38:52;;;;;;;;;;;16.70;38.30;;;;;;5028305;28;20423;-75
2023/03/17 08:41:19;;;;;;;;;;;16.70;38.20;;;;;;5027127;28;20378;-76
2023/03/17 08:43:44;;;;;;;;;;;16.70;38.10;;;;;;5017932;28;19917;-76
2023/03/17 08:46:20;;;;;;;;;;;16.60;38.10;;;;;;5037955;28;20390;-76
2023/03/17 08:48:46;;;;;;;;;;;16.70;38.30;;;;;;5009982;28;19936;-76
2023/03/17 08:51:12;;;;;;;;;;;16.70;38.20;;;;;;5005944;28;19943;-76
2023/03/17 08:53:38;;;;;;;;;;;16.70;38.20;;;;;;5017954;28;19992;-76
2023/03/17 08:56:04;;;;;;;;;;;16.70;38.20;;;;;;5008235;28;20414;-76
2023/03/17 08:58:29;;;;;;;;;;;16.70;38.10;;;;;;5013431;28;20406;-76
2023/03/17 09:01:01;;;;;;;;;;;16.70;38.00;;;;;;5025740;28;19916;-76
2023/03/17 09:03:27;;;;;;;;;;;16.70;38.20;;;;;;5006241;28;19931;-76
2023/03/17 09:05:53;;;;;;;;;;;16.70;38.00;;;;;;5024738;28;19948;-76
2023/03/17 09:08:20;;;;;;;;;;;16.70;38.10;;;;;;5006590;28;20302;-75
2023/03/17 09:10:46;;;;;;;;;;;16.70;37.90;;;;;;5007432;28;19937;-75
2023/03/17 09:13:11;;;;;;;;;;;16.70;38.10;;;;;;5013362;28;19917;-75
2023/03/17 09:15:37;;;;;;;;;;;16.70;38.20;;;;;;5012003;28;20259;-76
2023/03/17 09:18:03;;;;;;;;;;;16.70;38.00;;;;;;5021630;28;19958;-75
2023/03/17 09:20:28;;;;;;;;;;;16.70;38.30;;;;;;5026284;28;20007;-76
2023/03/17 09:22:55;;;;;;;;;;;16.70;38.20;;;;;;5008491;28;19917;-76
2023/03/17 09:25:20;;;;;;;;;;;16.70;38.30;;;;;;5018240;28;19938;-76
2023/03/17 09:27:46;;;;;;;;;;;16.80;38.40;;;;;;5031133;28;19925;-76
2023/03/17 09:30:16;;;;;;;;;;;16.80;38.50;;;;;;5016902;28;19913;-76
2023/03/17 09:32:41;;;;;;;;;;;16.80;38.50;;;;;;5014419;28;20287;-76
2023/03/17 09:35:07;;;;;;;;;;;16.80;38.50;;;;;;5010636;28;19914;-76
2023/03/17 09:37:33;;;;;;;;;;;16.90;38.60;;;;;;5019854;28;19909;-76
2023/03/17 09:39:58;;;;;;;;;;;16.80;38.50;;;;;;5031056;28;19909;-76
2023/03/17 09:42:24;;;;;;;;;;;16.80;38.60;;;;;;5030402;28;19913;-76
2023/03/17 09:44:55;;;;;;;;;;;16.90;38.70;;;;;;5018838;28;20008;-76
2023/03/17 09:47:24;;;;;;;;;;;16.90;38.70;;;;;;5023828;28;19947;-76
2023/03/17 09:49:54;;;;;;;;;;;16.90;38.70;;;;;;5023197;28;19913;-76
2023/03/17 09:52:22;;;;;;;;;;;16.90;38.80;;;;;;5029921;28;20259;-76
2023/03/17 09:54:48;;;;;;;;;;;16.90;38.80;;;;;;5030422;28;19921;-76
2023/03/17 09:57:21;;;;;;;;;;;16.90;38.70;;;;;;5020105;28;19914;-76
2023/03/17 09:59:48;;;;;;;;;;;16.90;38.70;;;;;;5010762;28;19921;-76
2023/03/17 10:02:27;;;;;;;;;;;17.00;38.90;;;;;;5006972;28;19921;-76
2023/03/17 10:04:53;;;;;;;;;;;17.00;38.90;;;;;;5014324;28;19909;-76
2023/03/17 10:07:21;;;;;;;;;;;17.00;38.70;;;;;;5030627;28;19920;-76
2023/03/17 10:09:59;;;;;;;;;;;16.90;38.70;;;;;;5019166;28;19932;-76
2023/03/17 10:12:54;;;;;;;;;;;17.00;38.90;;;;;;5025152;28;19948;-76
2023/03/17 10:15:20;;;;;;;;;;;17.00;38.90;;;;;;5021399;28;19925;-76
2023/03/17 10:17:46;;;;;;;;;;;17.00;38.90;;;;;;5001449;28;19917;-76
2023/03/17 10:20:16;;;;;;;;;;;17.00;38.90;;;;;;5024722;28;19909;-75
2023/03/17 10:22:43;;;;;;;;;;;17.00;39.00;;;;;;5033857;28;19921;-76
2023/03/17 10:25:12;;;;;;;;;;;16.90;39.10;;;;;;5002954;28;19920;-77
2023/03/17 10:27:37;;;;;;;;;;;16.90;39.30;;;;;;5003105;28;20363;-76
2023/03/17 10:30:04;;;;;;;;;;;16.90;39.30;;;;;;5023388;28;19916;-76
2023/03/17 10:32:29;;;;;;;;;;;16.90;39.30;;;;;;5031535;27;19919;-75
2023/03/17 10:34:55;;;;;;;;;;;16.90;39.40;;;;;;5007456;28;19917;-75
2023/03/17 10:37:21;;;;;;;;;;;16.90;39.40;;;;;;5000956;28;19959;-75
2023/03/17 10:39:48;;;;;;;;;;;16.80;39.70;;;;;;5014449;28;20012;-75
2023/03/17 10:42:23;;;;;;;;;;;16.70;39.30;;;;;;5018509;28;19913;-75
2023/03/17 10:44:56;;;;;;;;;;;16.10;38.40;;;;;;5015296;28;19938;-75
2023/03/17 10:47:29;;;;;;;;;;;15.80;38.80;;;;;;5036554;28;20258;-75
2023/03/17 10:50:02;;;;;;;;;;;15.70;38.70;;;;;;5025926;28;20012;-75
2023/03/17 10:52:29;;;;;;;;;;;15.70;39.10;;;;;;5023809;28;19948;-74
2023/03/17 10:54:54;;;;;;;;;;;15.40;39.30;;;;;;5007168;28;19922;-74
2023/03/17 10:57:20;;;;;;;;;;;15.50;39.00;;;;;;4998221;28;19909;-75
2023/03/17 10:59:52;;;;;;;;;;;15.40;39.00;;;;;;5002524;28;20008;-74
2023/03/17 11:02:25;;;;;;;;;;;15.40;39.10;;;;;;5002067;28;19939;-75
2023/03/17 11:04:52;;;;;;;;;;;15.30;39.10;;;;;;5026963;28;19916;-75
2023/03/17 11:07:20;;;;;;;;;;;15.40;39.30;;;;;;5009990;28;19910;-75
2023/03/17 11:09:52;;;;;;;;;;;15.40;39.10;;;;;;5020592;28;19959;-74
2023/03/17 11:12:20;;;;;;;;;;;15.70;39.10;;;;;;5014046;28;19921;-74
2023/03/17 11:14:46;;;;;;;;;;;15.80;38.80;;;;;;5007113;28;19917;-74
2023/03/17 11:17:15;;;;;;;;;;;15.90;38.50;;;;;;5028491;28;19909;-75
2023/03/17 11:19:56;;;;;;;;;;;15.90;38.70;;;;;;5010091;28;20425;-74
2023/03/17 11:22:30;;;;;;;;;;;15.90;38.70;;;;;;5025524;28;20336;-74
2023/03/17 11:25:08;;;;;;;;;;;16.00;38.90;;;;;;5029796;28;19910;-74
2023/03/17 11:27:39;;;;;;;;;;;16.00;38.80;;;;;;5019439;28;19917;-75
2023/03/17 11:30:05;;;;;;;;;;;16.00;38.90;;;;;;5003610;28;19941;-75
2023/03/17 11:32:34;;;;;;;;;;;16.00;39.00;;;;;;5023224;28;19917;-75
2023/03/17 11:35:09;;;;;;;;;;;16.00;39.00;;;;;;5015229;28;19920;-75
2023/03/17 11:37:35;;;;;;;;;;;16.10;39.20;;;;;;5022770;28;20302;-75
2023/03/17 11:40:26;;;;;;;;;;;16.00;39.00;;;;;;5018098;28;19914;-75
2023/03/17 11:42:52;;;;;;;;;;;16.10;39.00;;;;;;5015400;28;19920;-76
2023/03/17 11:45:30;;;;;;;;;;;16.10;39.10;;;;;;5014808;28;20007;-75
2023/03/17 11:48:04;;;;;;;;;;;16.10;39.40;;;;;;5024363;28;20487;-74
2023/03/17 11:50:42;;;;;;;;;;;16.10;39.60;;;;;;5021801;28;19948;-75
2023/03/17 11:53:15;;;;;;;;;;;16.20;39.80;;;;;;5024655;28;19917;-75
2023/03/17 11:55:44;;;;;;;;;;;16.40;39.60;;;;;;5019783;28;20003;-75
2023/03/17 11:58:12;;;;;;;;;;;16.40;39.30;;;;;;5024528;28;19914;-75
2023/03/17 12:00:44;;;;;;;;;;;16.40;39.30;;;;;;5007152;28;19917;-74
2023/03/17 12:03:13;;;;;;;;;;;16.20;39.00;;;;;;5018920;28;19961;-75
2023/03/17 12:05:39;;;;;;;;;;;16.20;38.80;;;;;;5017731;28;19938;-75
2023/03/17 12:08:17;;;;;;;;;;;16.20;38.60;;;;;;5005031;28;19917;-74
2023/03/17 12:10:44;;;;;;;;;;;16.40;38.50;;;;;;5025211;28;19971;-75
2023/03/17 12:13:18;;;;;;;;;;;16.40;38.10;;;;;;4995331;28;20008;-75
2023/03/17 12:15:51;;;;;;;;;;;16.40;38.00;;;;;;5020237;28;20012;-75
2023/03/17 12:18:20;;;;;;;;;;;16.40;37.70;;;;;;5012185;28;19913;-75
2023/03/17 12:20:46;;;;;;;;;;;16.50;37.30;;;;;;5027785;28;19913;-75
2023/03/17 12:23:15;;;;;;;;;;;16.40;36.70;;;;;;5033744;28;19913;-75
2023/03/17 12:25:49;;;;;;;;;;;16.50;36.90;;;;;;5020448;28;19909;-75
2023/03/17 12:28:16;;;;;;;;;;;16.50;36.60;;;;;;5028426;28;19913;-74
2023/03/17 12:30:44;;;;;;;;;;;16.50;36.60;;;;;;5028054;28;19921;-75
2023/03/17 12:33:28;;;;;;;;;;;16.50;36.60;;;;;;5027374;28;19921;-75
2023/03/17 12:35:54;;;;;;;;;;;16.50;36.80;;;;;;5020677;28;19918;-75
2023/03/17 12:38:38;;;;;;;;;;;16.50;36.90;;;;;;5022257;28;19969;-76
2023/03/17 12:41:04;;;;;;;;;;;16.50;36.60;;;;;;5014348;28;19952;-75
2023/03/17 12:43:45;;;;;;;;;;;16.60;36.50;;;;;;5013886;28;19972;-75
2023/03/17 12:46:23;;;;;;;;;;;16.50;36.60;;;;;;5015719;28;19973;-76
2023/03/17 12:49:01;;;;;;;;;;;16.70;36.90;;;;;;5013254;28;19931;-76
2023/03/17 12:51:27;;;;;;;;;;;16.70;37.10;;;;;;5016445;28;20002;-76
2023/03/17 12:53:52;;;;;;;;;;;16.70;37.30;;;;;;5028175;28;19942;-76
2023/03/17 12:56:19;;;;;;;;;;;16.90;37.20;;;;;;5009129;28;20008;-76
2023/03/17 12:58:45;;;;;;;;;;;16.90;37.20;;;;;;5013213;28;20469;-75
2023/03/17 13:01:33;;;;;;;;;;;16.90;36.90;;;;;;5021454;28;19909;-75
2023/03/17 13:04:01;;;;;;;;;;;16.90;37.00;;;;;;5012790;28;19914;-75
2023/03/17 13:06:28;;;;;;;;;;;16.80;37.10;;;;;;5029061;28;19913;-75
2023/03/17 13:08:53;;;;;;;;;;;16.90;37.30;;;;;;5010908;28;19924;-75
2023/03/17 13:11:26;;;;;;;;;;;17.00;37.40;;;;;;5018641;28;19933;-75
2023/03/17 13:14:10;;;;;;;;;;;16.90;37.50;;;;;;5021206;28;19929;-75
2023/03/17 13:16:43;;;;;;;;;;;17.00;37.70;;;;;;5027062;27;19924;-75
2023/03/17 13:19:12;;;;;;;;;;;16.90;37.30;;;;;;5019509;28;19962;-75
2023/03/17 13:21:37;;;;;;;;;;;16.90;37.20;;;;;;5015207;28;20278;-75
2023/03/17 13:24:15;;;;;;;;;;;16.80;37.10;;;;;;5011794;28;20000;-76
2023/03/17 13:26:50;;;;;;;;;;;16.90;37.20;;;;;;5018799;28;19917;-75
2023/03/17 13:29:26;;;;;;;;;;;16.90;37.40;;;;;;5031835;28;19909;-75
2023/03/17 13:31:51;;;;;;;;;;;16.90;37.60;;;;;;5032573;27;19954;-75
2023/03/17 13:34:18;;;;;;;;;;;17.00;37.70;;;;;;5030064;28;19917;-75
2023/03/17 13:36:44;;;;;;;;;;;17.00;37.50;;;;;;5010976;28;20256;-77
2023/03/17 13:39:18;;;;;;;;;;;17.10;37.40;;;;;;5011597;28;19975;-77
2023/03/17 13:41:49;;;;;;;;;;;17.10;37.40;;;;;;5010161;28;19989;-76
2023/03/17 13:44:14;;;;;;;;;;;17.10;37.40;;;;;;4994378;28;19962;-76
2023/03/17 13:46:45;;;;;;;;;;;17.10;37.40;;;;;;5012847;28;19914;-76
2023/03/17 13:49:15;;;;;;;;;;;17.10;37.60;;;;;;5015060;28;19913;-76
2023/03/17 13:51:41;;;;;;;;;;;17.10;37.40;;;;;;5014572;28;19913;-74
2023/03/17 13:54:42;;;;;;;;;;;17.20;37.60;;;;;;5019329;28;19971;-78
2023/03/17 13:57:20;;;;;;;;;;;17.20;37.20;;;;;;5073353;28;20066;-77
2023/03/17 13:59:49;;;;;;;;;;;17.20;37.00;;;;;;5006577;28;19916;-77
2023/03/17 14:02:20;;;;;;;;;;;17.20;37.00;;;;;;5021655;27;19917;-76
2023/03/17 14:04:53;;;;;;;;;;;17.10;37.00;;;;;;5025804;28;19937;-77
2023/03/17 14:07:19;;;;;;;;;;;17.10;37.10;;;;;;4994059;28;20000;-77
2023/03/17 14:09:45;;;;;;;;;;;17.00;37.20;;;;;;5012590;28;20002;-77
2023/03/17 14:12:11;;;;;;;;;;;17.00;37.40;;;;;;5011566;28;19917;-76
2023/03/17 14:14:42;;;;;;;;;;;16.90;37.30;;;;;;5009807;28;19989;-77
2023/03/17 14:17:12;;;;;;;;;;;16.90;37.60;;;;;;5011832;28;19917;-76
2023/03/17 14:19:40;;;;;;;;;;;16.90;37.70;;;;;;5011047;28;20353;-77